createdAt,value
2017-04-28T00:00:57.941Z,7.40
2017-04-28T00:03:26.549Z,7.30
2017-04-28T00:05:55.534Z,7.30
2017-04-28T00:08:23.780Z,7.30
2017-04-28T00:10:52.390Z,7.30
2017-04-28T00:13:21.368Z,7.20
2017-04-28T00:15:50.016Z,7.20
2017-04-28T00:18:18.624Z,7.20
2017-04-28T00:20:47.237Z,7.20
2017-04-28T00:23:16.267Z,7.10
2017-04-28T00:25:44.868Z,7.20
2017-04-28T00:28:13.471Z,7.20
2017-04-28T00:30:42.119Z,7.20
2017-04-28T00:33:10.731Z,7.10
2017-04-28T00:35:39.329Z,7.10
2017-04-28T00:38:08.357Z,7.10
2017-04-28T00:40:36.568Z,7.10
2017-04-28T00:43:05.181Z,7.10
2017-04-28T00:45:34.343Z,7.10
2017-04-28T00:48:02.957Z,7.00
2017-04-28T00:50:31.936Z,7.00
2017-04-28T00:53:00.938Z,7.00
2017-04-28T00:55:29.916Z,7.00
2017-04-28T00:57:58.132Z,7.00
2017-04-28T01:00:27.118Z,6.90
2017-04-28T01:02:55.728Z,6.90
2017-04-28T01:05:24.340Z,6.90
2017-04-28T01:07:53.186Z,6.90
2017-04-28T01:10:21.800Z,6.80
2017-04-28T01:12:50.402Z,6.90
2017-04-28T01:15:19.293Z,6.90
2017-04-28T01:17:48.273Z,6.90
2017-04-28T01:20:16.884Z,6.80
2017-04-28T01:22:45.105Z,6.80
2017-04-28T01:25:13.717Z,6.80
2017-04-28T01:27:41.926Z,6.80
2017-04-28T01:30:10.864Z,6.90
2017-04-28T01:32:39.078Z,6.90
2017-04-28T01:35:07.295Z,6.80
2017-04-28T01:37:35.709Z,6.90
2017-04-28T01:40:04.698Z,6.90
2017-04-28T01:42:32.920Z,6.80
2017-04-28T01:45:01.648Z,6.80
2017-04-28T01:47:29.870Z,6.80
2017-04-28T01:49:58.485Z,6.80
2017-04-28T01:52:27.289Z,6.80
2017-04-28T01:54:55.496Z,6.80
2017-04-28T01:57:24.105Z,6.70
2017-04-28T01:59:53.020Z,6.80
2017-04-28T02:02:21.627Z,6.70
2017-04-28T02:04:50.599Z,6.80
2017-04-28T02:07:19.598Z,6.80
2017-04-28T02:09:48.213Z,6.80
2017-04-28T02:12:16.821Z,6.80
2017-04-28T02:14:45.636Z,6.70
2017-04-28T02:17:14.254Z,6.70
2017-04-28T02:19:43.112Z,6.70
2017-04-28T02:22:12.012Z,6.80
2017-04-28T02:24:41.001Z,6.70
2017-04-28T02:27:09.608Z,6.70
2017-04-28T02:29:38.512Z,6.70
2017-04-28T02:32:06.728Z,6.70
2017-04-28T02:34:35.333Z,6.70
2017-04-28T02:37:04.362Z,6.70
2017-04-28T02:39:32.577Z,6.60
2017-04-28T02:42:01.193Z,6.80
2017-04-28T02:44:29.841Z,6.70
2017-04-28T02:46:58.453Z,6.70
2017-04-28T02:49:26.668Z,6.70
2017-04-28T02:51:55.293Z,6.70
2017-04-28T02:54:24.274Z,6.70
2017-04-28T02:56:53.027Z,6.70
2017-04-28T02:59:21.637Z,6.60
2017-04-28T03:01:50.241Z,6.60
2017-04-28T03:04:18.854Z,6.60
2017-04-28T03:06:47.383Z,6.60
2017-04-28T03:09:15.598Z,6.60
2017-04-28T03:11:44.213Z,6.60
2017-04-28T03:14:12.857Z,6.50
2017-04-28T03:16:41.068Z,6.50
2017-04-28T03:19:09.717Z,6.60
2017-04-28T03:21:38.575Z,6.60
2017-04-28T03:24:07.214Z,6.60
2017-04-28T03:26:35.855Z,6.60
2017-04-28T03:29:04.905Z,6.50
2017-04-28T03:31:33.542Z,6.50
2017-04-28T03:34:02.550Z,6.50
2017-04-28T03:36:31.218Z,6.40
2017-04-28T03:39:00.225Z,6.50
2017-04-28T03:41:28.870Z,6.40
2017-04-28T03:43:57.142Z,6.40
2017-04-28T03:46:25.778Z,6.30
2017-04-28T03:48:54.418Z,6.30
2017-04-28T03:51:23.176Z,6.20
2017-04-28T03:53:51.814Z,6.20
2017-04-28T03:56:20.457Z,6.20
2017-04-28T03:58:49.482Z,6.20
2017-04-28T04:01:18.118Z,6.10
2017-04-28T04:03:46.762Z,6.10
2017-04-28T04:06:15.439Z,6.10
2017-04-28T04:08:44.071Z,6.00
2017-04-28T04:11:12.710Z,6.00
2017-04-28T04:13:41.370Z,6.00
2017-04-28T04:16:10.374Z,6.00
2017-04-28T04:18:39.014Z,6.00
2017-04-28T04:21:07.677Z,6.00
2017-04-28T04:23:36.458Z,6.00
2017-04-28T04:26:05.099Z,6.00
2017-04-28T04:28:34.138Z,6.00
2017-04-28T04:31:02.773Z,6.00
2017-04-28T04:33:31.419Z,6.00
2017-04-28T04:36:00.444Z,6.10
2017-04-28T04:38:29.458Z,6.20
2017-04-28T04:40:58.101Z,6.10
2017-04-28T04:43:26.762Z,6.10
2017-04-28T04:45:55.394Z,6.10
2017-04-28T04:48:24.038Z,6.10
2017-04-28T04:50:52.957Z,6.10
2017-04-28T04:53:21.963Z,6.10
2017-04-28T04:55:50.613Z,6.20
2017-04-28T04:58:19.470Z,6.20
2017-04-28T05:00:48.106Z,6.30
2017-04-28T05:03:17.113Z,6.30
2017-04-28T05:05:45.877Z,6.30
2017-04-28T05:08:15.222Z,6.30
2017-04-28T05:10:43.834Z,6.40
2017-04-28T05:13:12.857Z,6.40
2017-04-28T05:15:41.861Z,6.40
2017-04-28T05:18:10.107Z,6.40
2017-04-28T05:20:39.151Z,6.60
2017-04-28T05:23:07.793Z,6.50
2017-04-28T05:25:37.040Z,6.60
2017-04-28T05:28:05.982Z,6.60
2017-04-28T05:30:34.234Z,6.60
2017-04-28T05:33:04.594Z,6.70
2017-04-28T05:35:33.068Z,6.70
2017-04-28T05:38:01.310Z,6.80
2017-04-28T05:40:29.954Z,6.80
2017-04-28T05:42:58.619Z,7.00
2017-04-28T05:45:27.262Z,7.00
2017-04-28T05:47:55.915Z,7.00
2017-04-28T05:50:24.841Z,7.20
2017-04-28T05:52:53.857Z,7.30
2017-04-28T05:55:22.493Z,7.30
2017-04-28T05:57:51.522Z,7.30
2017-04-28T06:00:20.538Z,7.30
2017-04-28T06:02:49.181Z,7.20
2017-04-28T06:05:17.877Z,7.20
2017-04-28T06:07:46.127Z,7.10
2017-04-28T06:10:14.773Z,7.20
2017-04-28T06:12:43.442Z,7.20
2017-04-28T06:15:12.125Z,7.20
2017-04-28T06:17:40.371Z,7.20
2017-04-28T06:20:09.608Z,7.30
2017-04-28T06:22:38.238Z,7.20
2017-04-28T06:25:06.490Z,7.20
2017-04-28T06:27:35.530Z,7.40
2017-04-28T06:30:04.182Z,7.30
2017-04-28T06:32:33.434Z,7.50
2017-04-28T06:35:02.193Z,7.40
2017-04-28T06:37:30.832Z,7.50
2017-04-28T06:39:59.469Z,7.60
2017-04-28T06:42:27.740Z,7.60
2017-04-28T06:44:56.386Z,7.50
2017-04-28T06:47:24.639Z,7.50
2017-04-28T06:49:53.578Z,7.50
2017-04-28T06:52:22.832Z,7.50
2017-04-28T06:54:51.475Z,7.60
2017-04-28T06:57:20.465Z,7.60
2017-04-28T06:59:49.110Z,7.60
2017-04-28T07:02:18.614Z,7.60
2017-04-28T07:04:47.297Z,7.50
2017-04-28T07:07:15.941Z,7.50
2017-04-28T07:09:44.578Z,7.50
2017-04-28T07:12:14.190Z,7.60
2017-04-28T07:14:42.435Z,7.60
2017-04-28T07:17:11.101Z,7.50
2017-04-28T07:19:39.764Z,7.50
2017-04-28T07:22:08.024Z,7.50
2017-04-28T07:24:36.271Z,7.30
2017-04-28T07:27:05.692Z,7.50
2017-04-28T07:29:34.510Z,7.40
2017-04-28T07:32:03.153Z,7.30
2017-04-28T07:34:31.815Z,7.30
2017-04-28T07:37:00.450Z,7.40
2017-04-28T07:39:28.694Z,7.30
2017-04-28T07:41:57.582Z,7.30
2017-04-28T07:44:26.213Z,7.30
2017-04-28T07:46:54.860Z,7.20
2017-04-28T07:49:23.424Z,7.20
2017-04-28T07:51:52.425Z,7.20
2017-04-28T07:54:21.082Z,7.20
2017-04-28T07:56:50.607Z,7.20
2017-04-28T07:59:19.245Z,7.30
2017-04-28T08:01:47.492Z,7.30
2017-04-28T08:04:15.852Z,7.30
2017-04-28T08:06:44.493Z,7.30
2017-04-28T08:09:12.746Z,7.30
2017-04-28T08:11:41.700Z,7.20
2017-04-28T08:14:10.338Z,7.20
2017-04-28T08:16:38.982Z,7.30
2017-04-28T08:19:07.756Z,7.20
2017-04-28T08:21:36.401Z,7.10
2017-04-28T08:24:04.646Z,7.10
2017-04-28T08:26:33.305Z,6.90
2017-04-28T08:29:02.229Z,6.80
2017-04-28T08:31:31.045Z,6.80
2017-04-28T08:33:59.730Z,6.80
2017-04-28T08:36:28.372Z,7.00
2017-04-28T08:38:57.031Z,6.90
2017-04-28T08:41:25.893Z,6.80
2017-04-28T08:43:54.535Z,6.80
2017-04-28T08:46:23.182Z,6.80
2017-04-28T08:48:51.935Z,6.90
2017-04-28T08:51:20.949Z,6.90
2017-04-28T08:53:49.597Z,7.00
2017-04-28T08:56:18.520Z,6.90
2017-04-28T08:58:47.158Z,6.80
2017-04-28T09:01:15.802Z,6.80
2017-04-28T09:03:44.453Z,6.80
2017-04-28T09:06:13.337Z,6.90
2017-04-28T09:08:41.994Z,7.00
2017-04-28T09:11:10.264Z,7.00
2017-04-28T09:13:38.954Z,7.00
2017-04-28T09:16:07.197Z,7.00
2017-04-28T09:18:35.849Z,7.00
2017-04-28T09:21:04.973Z,6.90
2017-04-28T09:23:34.434Z,7.00
2017-04-28T09:26:03.564Z,7.20
2017-04-28T09:28:32.411Z,7.30
2017-04-28T09:31:00.663Z,7.30
2017-04-28T09:33:29.305Z,7.50
2017-04-28T09:35:58.157Z,7.60
2017-04-28T09:38:27.169Z,7.60
2017-04-28T09:40:55.821Z,7.60
2017-04-28T09:43:25.541Z,7.60
2017-04-28T09:45:54.569Z,7.70
2017-04-28T09:48:23.198Z,7.80
2017-04-28T09:50:52.213Z,8.00
2017-04-28T09:53:20.903Z,8.00
2017-04-28T09:55:49.557Z,8.00
2017-04-28T09:58:18.584Z,8.20
2017-04-28T10:00:47.433Z,8.10
2017-04-28T10:03:16.087Z,8.10
2017-04-28T10:05:44.733Z,8.00
2017-04-28T10:08:13.008Z,8.00
2017-04-28T10:10:41.654Z,8.10
2017-04-28T10:13:10.309Z,8.30
2017-04-28T10:15:39.151Z,8.30
2017-04-28T10:18:07.399Z,8.30
2017-04-28T10:20:36.054Z,8.40
2017-04-28T10:23:04.725Z,8.50
2017-04-28T10:25:34.025Z,8.80
2017-04-28T10:28:02.271Z,8.80
2017-04-28T10:30:31.033Z,8.50
2017-04-28T10:33:00.419Z,8.40
2017-04-28T10:35:29.050Z,8.40
2017-04-28T10:37:58.017Z,8.50
2017-04-28T10:40:26.301Z,8.50
2017-04-28T10:42:55.348Z,8.40
2017-04-28T10:45:24.287Z,8.40
2017-04-28T10:47:52.930Z,8.60
2017-04-28T10:50:21.575Z,8.80
2017-04-28T10:52:50.259Z,8.50
2017-04-28T10:57:53.695Z,8.70
2017-04-28T11:00:22.340Z,9.20
2017-04-28T11:02:50.586Z,9.20
2017-04-28T11:05:19.459Z,9.10
2017-04-28T11:07:48.560Z,8.70
2017-04-28T11:10:16.797Z,8.70
2017-04-28T11:12:45.747Z,8.80
2017-04-28T11:15:14.412Z,9.00
2017-04-28T11:17:43.432Z,9.00
2017-04-28T11:20:12.259Z,8.90
2017-04-28T11:22:40.902Z,9.10
2017-04-28T11:25:11.868Z,9.10
2017-04-28T11:27:40.537Z,9.00
2017-04-28T11:30:08.786Z,9.00
2017-04-28T11:32:37.030Z,9.10
2017-04-28T11:35:05.709Z,9.40
2017-04-28T11:37:34.351Z,9.40
2017-04-28T11:40:02.608Z,9.40
2017-04-28T11:42:31.275Z,9.60
2017-04-28T11:45:00.289Z,9.60
2017-04-28T11:47:28.938Z,9.60
2017-04-28T11:49:58.241Z,9.90
2017-04-28T11:52:26.495Z,9.90
2017-04-28T11:54:55.138Z,10.70
2017-04-28T11:57:23.799Z,10.90
2017-04-28T11:59:52.460Z,11.30
2017-04-28T12:02:21.113Z,11.30
2017-04-28T12:04:50.041Z,11.40
2017-04-28T12:07:19.070Z,11.60
2017-04-28T12:09:47.720Z,11.50
2017-04-28T12:12:16.766Z,12.00
2017-04-28T12:14:45.428Z,11.70
2017-04-28T12:17:14.070Z,12.30
2017-04-28T12:19:43.373Z,12.50
2017-04-28T12:22:12.015Z,12.40
2017-04-28T12:24:40.664Z,11.80
2017-04-28T12:27:09.346Z,11.60
2017-04-28T12:29:37.983Z,11.20
2017-04-28T12:32:06.626Z,11.20
2017-04-28T12:34:35.552Z,11.00
2017-04-28T12:37:04.506Z,11.00
2017-04-28T12:39:33.152Z,10.60
2017-04-28T12:42:01.982Z,11.00
2017-04-28T12:44:30.619Z,11.30
2017-04-28T12:46:59.626Z,11.20
2017-04-28T12:49:28.461Z,10.60
2017-04-28T12:51:57.115Z,10.60
2017-04-28T12:54:25.762Z,10.70
2017-04-28T12:56:54.806Z,10.80
2017-04-28T12:59:23.456Z,10.90
2017-04-28T13:01:51.709Z,10.90
2017-04-28T13:04:21.694Z,10.80
2017-04-28T13:06:50.341Z,10.80
2017-04-28T13:09:18.586Z,10.80
2017-04-28T13:11:47.270Z,10.70
2017-04-28T13:14:15.527Z,10.70
2017-04-28T13:16:44.706Z,11.10
2017-04-28T13:19:13.545Z,11.40
2017-04-28T13:21:42.179Z,11.20
2017-04-28T13:24:10.831Z,11.00
2017-04-28T13:26:39.885Z,10.90
2017-04-28T13:29:08.540Z,10.60
2017-04-28T13:31:36.791Z,10.60
2017-04-28T13:34:05.735Z,10.50
2017-04-28T13:36:34.873Z,10.60
2017-04-28T13:39:03.533Z,10.60
2017-04-28T13:41:32.222Z,10.60
2017-04-28T13:44:00.870Z,10.60
2017-04-28T13:46:29.122Z,10.60
2017-04-28T13:48:58.151Z,10.40
2017-04-28T13:51:26.412Z,10.40
2017-04-28T13:53:55.427Z,10.50
2017-04-28T13:56:24.104Z,10.30
2017-04-28T13:58:52.763Z,10.10
2017-04-28T14:01:21.794Z,10.20
2017-04-28T14:03:50.450Z,10.10
2017-04-28T14:06:20.109Z,10.00
2017-04-28T14:08:48.372Z,10.00
2017-04-28T14:11:17.037Z,9.80
2017-04-28T14:13:45.683Z,9.90
2017-04-28T14:16:13.931Z,9.90
2017-04-28T14:18:42.901Z,9.50
2017-04-28T14:21:12.138Z,9.50
2017-04-28T14:23:41.901Z,9.40
2017-04-28T14:26:10.758Z,9.20
2017-04-28T14:28:39.768Z,9.10
2017-04-28T14:31:08.416Z,8.80
2017-04-28T14:33:36.693Z,8.80
2017-04-28T14:36:05.848Z,8.70
2017-04-28T14:38:34.577Z,8.90
2017-04-28T14:41:03.703Z,8.80
2017-04-28T14:43:32.339Z,8.60
2017-04-28T14:46:00.579Z,8.60
2017-04-28T14:48:29.194Z,8.50
2017-04-28T14:50:57.838Z,8.40
2017-04-28T14:53:26.488Z,8.40
2017-04-28T14:55:56.313Z,8.50
2017-04-28T14:58:24.946Z,8.50
2017-04-28T15:00:53.818Z,8.50
2017-04-28T15:03:22.167Z,8.50
2017-04-28T15:05:50.812Z,8.90
2017-04-28T15:08:19.853Z,9.00
2017-04-28T15:10:49.489Z,9.10
2017-04-28T15:13:18.145Z,9.20
2017-04-28T15:15:46.806Z,9.40
2017-04-28T15:18:15.653Z,9.80
2017-04-28T15:20:45.017Z,9.80
2017-04-28T15:23:13.646Z,9.60
2017-04-28T15:25:42.713Z,9.30
2017-04-28T15:28:11.353Z,9.30
2017-04-28T15:30:39.612Z,9.30
2017-04-28T15:33:08.922Z,9.60
2017-04-28T15:35:37.179Z,9.60
2017-04-28T15:38:06.203Z,9.50
2017-04-28T15:40:34.718Z,9.50
2017-04-28T15:43:03.354Z,9.90
2017-04-28T15:45:33.120Z,9.80
2017-04-28T15:48:02.059Z,9.80
2017-04-28T15:50:30.707Z,9.70
2017-04-28T15:52:59.363Z,9.70
2017-04-28T15:55:28.049Z,9.70
2017-04-28T15:57:56.685Z,9.70
2017-04-28T16:00:25.333Z,9.80
2017-04-28T16:02:54.648Z,9.80
2017-04-28T16:05:23.875Z,9.80
2017-04-28T16:07:52.525Z,9.70
2017-04-28T16:10:23.008Z,9.70
2017-04-28T16:12:52.088Z,9.60
2017-04-28T16:15:20.322Z,9.60
2017-04-28T16:17:49.374Z,9.70
2017-04-28T16:20:18.019Z,9.70
2017-04-28T16:22:46.596Z,9.70
2017-04-28T16:25:15.233Z,9.50
2017-04-28T16:27:43.897Z,9.40
2017-04-28T16:30:12.953Z,9.30
2017-04-28T16:32:41.597Z,9.50
2017-04-28T16:35:10.250Z,9.60
2017-04-28T16:37:39.255Z,9.40
2017-04-28T16:40:09.495Z,9.40
2017-04-28T16:42:38.462Z,9.40
2017-04-28T16:45:07.138Z,9.30
2017-04-28T16:47:35.793Z,9.30
2017-04-28T16:50:04.465Z,9.30
2017-04-28T16:52:33.391Z,9.40
2017-04-28T16:55:02.050Z,9.40
2017-04-28T16:57:31.032Z,9.40
2017-04-28T16:59:59.669Z,9.20
2017-04-28T17:02:28.310Z,9.10
2017-04-28T17:04:56.968Z,9.20
2017-04-28T17:07:25.972Z,9.30
2017-04-28T17:09:54.607Z,9.20
2017-04-28T17:12:23.285Z,9.30
2017-04-28T17:14:51.939Z,9.30
2017-04-28T17:17:20.581Z,9.40
2017-04-28T17:19:49.882Z,9.50
2017-04-28T17:22:18.517Z,9.30
2017-04-28T17:24:47.165Z,9.40
2017-04-28T17:27:16.430Z,9.30
2017-04-28T17:29:45.069Z,9.30
2017-04-28T17:32:14.060Z,9.30
2017-04-28T17:34:42.714Z,9.20
2017-04-28T17:37:11.361Z,9.20
2017-04-28T17:39:40.009Z,9.30
2017-04-28T17:42:08.457Z,9.30
2017-04-28T17:44:38.103Z,9.30
2017-04-28T17:47:07.289Z,9.30
2017-04-28T17:49:35.826Z,9.30
2017-04-28T17:52:05.105Z,9.40
2017-04-28T17:54:33.755Z,9.30
2017-04-28T17:57:03.426Z,9.30
2017-04-28T17:59:32.360Z,9.30
2017-04-28T18:02:01.017Z,9.40
2017-04-28T18:04:31.173Z,9.40
2017-04-28T18:07:00.921Z,9.10
2017-04-28T18:09:30.232Z,8.90
2017-04-28T18:11:58.771Z,8.90
2017-04-28T18:14:27.390Z,8.50
2017-04-28T18:16:56.416Z,8.40
2017-04-28T18:19:25.336Z,8.40
2017-04-28T18:21:53.978Z,8.50
2017-04-28T18:24:22.647Z,8.60
2017-04-28T18:26:51.692Z,8.70
2017-04-28T18:29:21.469Z,8.60
2017-04-28T18:31:50.325Z,8.50
2017-04-28T18:34:18.584Z,8.50
2017-04-28T18:36:46.822Z,8.60
2017-04-28T18:39:17.909Z,8.60
2017-04-28T18:41:46.547Z,8.60
2017-04-28T18:44:15.222Z,8.60
2017-04-28T18:46:43.901Z,8.60
2017-04-28T18:49:12.535Z,8.60
2017-04-28T18:51:41.395Z,8.60
2017-04-28T18:54:10.057Z,8.70
2017-04-28T18:56:38.703Z,8.50
2017-04-28T18:59:08.339Z,8.60
2017-04-28T19:01:36.957Z,8.50
2017-04-28T19:04:05.705Z,8.50
2017-04-28T19:06:33.960Z,8.50
2017-04-28T19:09:02.890Z,8.70
2017-04-28T19:11:31.542Z,8.60
2017-04-28T19:14:01.274Z,8.40
2017-04-28T19:16:30.928Z,8.40
2017-04-28T19:19:00.226Z,8.50
2017-04-28T19:21:29.577Z,8.60
2017-04-28T19:23:58.688Z,8.60
2017-04-28T19:26:31.644Z,8.60
2017-04-28T19:29:02.507Z,8.30
2017-04-28T19:31:31.250Z,8.30
2017-04-28T19:33:59.904Z,8.20
2017-04-28T19:36:28.906Z,8.10
2017-04-28T19:38:57.598Z,8.10
2017-04-28T19:41:26.247Z,8.30
2017-04-28T19:43:54.901Z,8.50
2017-04-28T19:46:23.569Z,8.50
2017-04-28T19:48:52.210Z,8.60
2017-04-28T19:51:21.258Z,8.60
2017-04-28T19:53:49.926Z,8.50
2017-04-28T19:56:18.170Z,8.50
2017-04-28T19:58:46.814Z,8.60
2017-04-28T20:01:15.491Z,8.60
2017-04-28T20:03:44.230Z,8.40
2017-04-28T20:06:12.870Z,8.40
2017-04-28T20:08:41.745Z,8.50
2017-04-28T20:11:10.520Z,8.50
2017-04-28T20:13:39.172Z,8.50
2017-04-28T20:16:07.832Z,8.50
2017-04-28T20:18:37.328Z,8.40
2017-04-28T20:21:06.182Z,8.30
2017-04-28T20:23:34.454Z,8.30
2017-04-28T20:26:02.714Z,8.30
2017-04-28T20:28:31.797Z,8.20
2017-04-28T20:31:00.791Z,8.10
2017-04-28T20:33:29.032Z,8.10
2017-04-28T20:35:58.033Z,8.10
2017-04-28T20:38:26.307Z,8.10
2017-04-28T20:40:55.938Z,8.10
2017-04-28T20:43:24.589Z,8.40
2017-04-28T20:45:53.773Z,8.60
2017-04-28T20:48:23.139Z,8.60
2017-04-28T20:50:52.668Z,8.30
2017-04-28T20:53:21.321Z,8.10
2017-04-28T20:55:49.579Z,8.10
2017-04-28T20:58:18.214Z,8.00
2017-04-28T21:00:46.896Z,8.00
2017-04-28T21:03:15.949Z,8.10
2017-04-28T21:05:45.589Z,8.20
2017-04-28T21:08:14.520Z,7.90
2017-04-28T21:10:43.189Z,7.80
2017-04-28T21:13:12.203Z,7.80
2017-04-28T21:15:40.970Z,7.70
2017-04-28T21:18:09.221Z,7.70
2017-04-28T21:20:37.869Z,7.50
2017-04-28T21:23:06.712Z,7.50
2017-04-28T21:25:35.361Z,7.50
2017-04-28T21:28:04.169Z,7.40
2017-04-28T21:30:33.492Z,7.40
2017-04-28T21:33:02.134Z,7.30
2017-04-28T21:35:30.758Z,7.10
2017-04-28T21:37:59.426Z,7.00
2017-04-28T21:40:27.955Z,7.00
2017-04-28T21:42:56.586Z,7.10
2017-04-28T21:45:25.674Z,6.90
2017-04-28T21:47:54.689Z,6.80
2017-04-28T21:50:22.929Z,6.80
2017-04-28T21:52:51.647Z,6.90
2017-04-28T21:55:20.282Z,7.10
2017-04-28T21:57:48.923Z,7.20
2017-04-28T22:00:17.790Z,7.10
2017-04-28T22:02:46.700Z,7.10
2017-04-28T22:05:15.001Z,7.10
2017-04-28T22:07:44.531Z,7.00
2017-04-28T22:10:13.490Z,6.80
2017-04-28T22:12:42.215Z,6.80
2017-04-28T22:15:17.218Z,6.60
2017-04-28T22:17:45.855Z,6.30
2017-04-28T22:20:14.093Z,6.30
2017-04-28T22:22:43.504Z,6.30
2017-04-28T22:25:11.751Z,6.30
2017-04-28T22:27:40.383Z,6.20
2017-04-28T22:30:09.508Z,6.10
2017-04-28T22:32:37.741Z,6.00
2017-04-28T22:35:06.750Z,5.90
2017-04-28T22:37:35.425Z,5.90
2017-04-28T22:40:04.109Z,5.90
2017-04-28T22:42:33.154Z,5.80
2017-04-28T22:45:01.797Z,5.80
2017-04-28T22:47:30.429Z,5.90
2017-04-28T22:49:59.071Z,5.70
2017-04-28T22:52:27.722Z,5.60
2017-04-28T22:54:56.725Z,5.60
2017-04-28T22:57:24.983Z,5.60
2017-04-28T22:59:54.021Z,5.50
2017-04-28T23:02:22.874Z,5.50
2017-04-28T23:04:51.874Z,5.50
2017-04-28T23:07:20.546Z,5.50
2017-04-28T23:09:49.194Z,5.70
2017-04-28T23:12:17.831Z,5.80
2017-04-28T23:14:46.283Z,5.80
2017-04-28T23:17:14.521Z,5.60
2017-04-28T23:19:43.662Z,5.40
2017-04-28T23:22:12.313Z,5.50
2017-04-28T23:24:40.945Z,5.60
2017-04-28T23:27:09.577Z,5.80
2017-04-28T23:29:38.258Z,5.60
2017-04-28T23:32:07.039Z,5.60
2017-04-28T23:34:35.292Z,5.40
2017-04-28T23:37:03.958Z,5.20
2017-04-28T23:39:32.201Z,5.20
2017-04-28T23:42:01.214Z,5.10
2017-04-28T23:44:29.877Z,5.00
2017-04-28T23:46:58.917Z,4.90
2017-04-28T23:49:28.655Z,4.90
2017-04-28T23:51:57.494Z,4.90
2017-04-28T23:54:26.130Z,4.80
2017-04-28T23:56:55.176Z,4.80
2017-04-28T23:59:24.083Z,4.80
